Aviation Digital Data Service (ADDS)

Output produced by METARs form (1629 UTC 02 October 2014)
found at http://www.aviationweather.gov/adds/metars/
 
KFIG 021554Z AUTO 00000KT 10SM BKN017 OVC025 18/13 A3014 RMK AO2 SLP205 T01780133
KFIG 021454Z AUTO 00000KT 10SM BKN015 17/13 A3016 RMK AO2 SLP213 T01670133 53002
KFIG 021447Z AUTO VRB04KT 10SM BKN015 17/14 A3016 RMK AO2 T01670139
KFIG 021354Z AUTO 06005KT 9SM SCT002 14/13 A3015 RMK AO2 SLP211 T01440128
KFIG 021324Z AUTO 01006KT 3SM BR BKN002 OVC018 13/12 A3015 RMK AO2 T01280122
KFIG 021254Z AUTO 36003KT 1SM BR BKN002 OVC018 12/12 A3015 RMK AO2 SLP210 T01220117
KFIG 021251Z AUTO 02004KT 1 3/4SM BR SCT002 OVC018 12/12 A3015 RMK AO2
KFIG 021224Z AUTO 35003KT 3SM BR FEW001 SCT004 OVC016 12/12 A3015 RMK AO2 T01170117
KFIG 021217Z AUTO 03005KT 1 1/4SM BR SCT004 OVC016 12/11 A3015 RMK AO2 T01170111
KFIG 021207Z AUTO 01004KT 1/2SM FG BKN004 OVC014 11/11 A3016 RMK AO2 T01110111
KFIG 021157Z AUTO 01004KT 1 1/2SM BR BKN004 OVC014 11/11 A3015 RMK AO2 T01110111
KFIG 021154Z AUTO 01004KT 2SM BR SCT002 OVC014 11/11 A3016 RMK AO2 SLP211 T01110111 10117 20106 53013
KFIG 021150Z AUTO 36003KT 2SM BR SCT002 OVC014 11/11 A3016 RMK AO2
KFIG 021135Z AUTO 02004KT 1 3/4SM BR BKN002 OVC014 11/11 A3015 RMK AO2 T01110111
KFIG 021100Z AUTO 06004KT 3SM BR OVC002 11/11 A3014 RMK AO2 T01110111
KFIG 021054Z AUTO 07004KT 1SM BR VV002 11/11 A3013 RMK AO2 SLP201 T01110111
KFIG 021040Z AUTO 04004KT 1/2SM FG VV002 11/11 A3013 RMK AO2 T01110111
KFIG 021020Z AUTO 00000KT 1 3/4SM BR OVC002 11/11 A3013 RMK AO2 T01110111
KFIG 021012Z AUTO 00000KT 3/4SM BR VV002 11/11 A3012 RMK AO2 T01110111
KFIG 020954Z AUTO 01005KT 1/4SM FG VV002 11/11 A3012 RMK AO2 SLP197 T01110111
KFIG 020854Z AUTO 01003KT 1/4SM FG VV002 11/11 A3011 RMK AO2 SLP195 T01110111 53002
KFIG 020754Z AUTO 00000KT 1/4SM FG VV002 11/11 A3010 RMK AO2 SLP192 T01110111
KFIG 020654Z AUTO 00000KT M1/4SM FG VV002 11/11 A3011 RMK AO2 SLP193 T01110111
KFIG 020554Z AUTO 00000KT M1/4SM FG VV002 12/11 A3011 RMK AO2 SLP193 T01170111 10161 20100 53004
KFIG 020525Z AUTO 00000KT 1/4SM FG VV002 11/11 A3011 RMK AO2 T01060106
KFIG 020503Z AUTO 03005KT 3/4SM BR VV002 11/10 A3010 RMK AO2 T01060100
KFIG 020458Z AUTO 04005KT 1 3/4SM BR SCT002 11/10 A3010 RMK AO2 T01060100
KFIG 020454Z AUTO 03004KT 3SM BR FEW002 10/10 A3010 RMK AO2 SLP192 T01000100 402170100
KFIG 020354Z AUTO 00000KT 6SM BR CLR 11/11 A3010 RMK AO2 SLP191 T01110106
KFIG 020254Z AUTO 01005KT 7SM CLR 12/11 A3010 RMK AO2 SLP191 T01170111 51011
KFIG 020154Z AUTO 34006KT 7SM CLR 12/12 A3009 RMK AO2 SLP189 T01220117
KFIG 020054Z AUTO 35005KT 10SM CLR 13/13 A3008 RMK AO2 SLP186 T01330128
KFIG 012354Z AUTO 00000KT 10SM CLR 16/13 A3006 RMK AO2 SLP179 T01610133 10217 20161 53008
KFIG 012254Z AUTO 12003KT 10SM CLR 18/12 A3006 RMK AO2 SLP176 T01830122
KFIG 012154Z AUTO VRB03KT 10SM CLR 20/12 A3004 RMK AO2 SLP170 T02000122
KFIG 012054Z AUTO 09008KT 10SM FEW038 BKN050 BKN070 21/12 A3004 RMK AO2 SLP168 T02060122 56006
KFIG 011954Z AUTO VRB04KT 10SM FEW031 20/13 A3004 RMK AO2 SLP169 T02000128
KFIG 011854Z AUTO 08005KT 10SM SCT025 BKN030 BKN041 21/13 A3004 RMK AO2 SLP170 T02060133
KFIG 011840Z AUTO 11007KT 10SM BKN025 20/13 A3004 RMK AO2 T02000133
KFIG 011754Z AUTO 07003KT 10SM SCT017 SCT024 19/14 A3006 RMK AO2 SLP177 T01890139 10194 20117 58008
KFIG 011654Z AUTO 08005KT 10SM BKN015 17/14 A3008 RMK AO2 SLP183 T01720139
KFIG 011622Z AUTO 07006KT 10SM OVC010 16/14 A3009 RMK AO2 T01610139
KFIG 011554Z AUTO 06006KT 10SM OVC008 16/14 A3009 RMK AO2 CIG 008V012 SLP188 T01610139
KFIG 011542Z AUTO 05005KT 10SM OVC008 16/13 A3009 RMK AO2 T01560133
KFIG 011517Z AUTO 06006KT 10SM OVC010 16/14 A3009 RMK AO2 CIG 007V012 T01560139
KFIG 011454Z AUTO 06007KT 10SM OVC007 15/13 A3008 RMK AO2 CIG 006V012 SLP186 T01500133 51016
KFIG 011435Z AUTO 07005KT 10SM OVC007 15/13 A3008 RMK AO2 CIG 003V010 T01500133
KFIG 011421Z AUTO 10005KT 10SM OVC004 13/13 A3009 RMK AO2 CIG 002V008 T01330133
KFIG 011404Z AUTO 06004KT 4SM BR OVC002 13/13 A3008 RMK AO2 T01330133
KFIG 011354Z AUTO 07004KT 2SM BR OVC002 13/13 A3008 RMK AO2 SLP185 T01330133
KFIG 011347Z AUTO 08004KT 3/4SM BR VV002 13/13 A3008 RMK AO2 T01330133
KFIG 011254Z AUTO 03005KT M1/4SM FG VV002 12/12 A3005 RMK AO2 SLP175 T01220122
KFIG 011154Z AUTO 00000KT M1/4SM FG VV002 12/12 A3003 RMK AO2 SLP169 T01170117 10122 20117 53013
KFIG 011054Z AUTO 00000KT 1/4SM FG VV002 12/12 A3001 RMK AO2 SLP160 T01170117
KFIG 010954Z AUTO 00000KT 1/4SM FG VV002 12/12 A3000 RMK AO2 SLP157 T01220122
KFIG 010854Z AUTO 36005KT 1/4SM FG VV002 12/12 A3000 RMK AO2 SLP153 T01220122 55001
KFIG 010754Z AUTO 34005KT 1/4SM FG VV002 12/12 A2999 RMK AO2 SLP151 T01170117
KFIG 010654Z AUTO 01003KT 1/4SM FG VV002 12/12 A3000 RMK AO2 SLP152 T01220122
KFIG 010554Z AUTO 35004KT 1/4SM FG VV002 12/12 A3000 RMK AO2 SLP152 T01220122 10172 20122 53007
KFIG 010454Z AUTO 36004KT 1/4SM FG VV002 13/13 A2999 RMK AO2 SLP148 T01280128 402560083